createdAt,value
2023-02-08T00:01:16.622Z,24.58
2023-02-08T00:03:44.503Z,27.40
2023-02-08T00:06:15.086Z,23.48
2023-02-08T00:08:42.757Z,28.60
2023-02-08T00:11:13.161Z,22.80
2023-02-08T00:13:42.364Z,30.50
2023-02-08T00:16:10.801Z,22.65
2023-02-08T00:18:37.891Z,28.17
2023-02-08T00:21:14.733Z,27.65
2023-02-08T00:23:42.514Z,24.75
2023-02-08T00:26:10.518Z,26.20
2023-02-08T00:28:38.197Z,24.92
2023-02-08T00:31:06.031Z,26.20
2023-02-08T00:33:33.232Z,25.75
2023-02-08T00:36:02.997Z,21.73
2023-02-08T00:38:30.545Z,28.80
2023-02-08T00:40:57.645Z,24.52
2023-02-08T00:43:25.029Z,25.38
2023-02-08T00:45:57.464Z,22.02
2023-02-08T00:48:26.815Z,24.20
2023-02-08T00:51:05.392Z,22.80
2023-02-08T00:53:37.774Z,26.08
2023-02-08T00:56:06.514Z,25.27
2023-02-08T00:58:35.003Z,26.33
2023-02-08T01:01:04.240Z,26.42
2023-02-08T01:03:35.854Z,29.35
2023-02-08T01:06:06.877Z,25.70
2023-02-08T01:08:33.793Z,22.92
2023-02-08T01:11:14.529Z,26.25
2023-02-08T01:13:41.947Z,26.77
2023-02-08T01:16:27.546Z,24.55
2023-02-08T01:18:56.802Z,27.02
2023-02-08T01:21:29.807Z,22.55
2023-02-08T01:23:57.262Z,24.23
2023-02-08T01:26:25.909Z,29.05
2023-02-08T01:28:54.746Z,29.48
2023-02-08T01:31:30.646Z,26.52
2023-02-08T01:34:01.412Z,24.77
2023-02-08T01:36:30.127Z,23.52
2023-02-08T01:38:57.329Z,26.20
2023-02-08T01:41:32.729Z,26.35
2023-02-08T01:46:45.223Z,30.08
2023-02-08T01:49:13.541Z,24.35
2023-02-08T01:51:54.603Z,29.00
2023-02-08T01:54:25.237Z,23.15
2023-02-08T01:56:52.738Z,28.02
2023-02-08T01:59:50.002Z,24.63
2023-02-08T02:02:21.024Z,27.52
2023-02-08T02:04:51.004Z,27.38
2023-02-08T02:07:21.662Z,24.25
2023-02-08T02:10:21.626Z,24.88
2023-02-08T02:12:50.625Z,25.33
2023-02-08T02:15:17.591Z,27.10
2023-02-08T02:17:44.882Z,28.00
2023-02-08T02:20:58.853Z,23.85
2023-02-08T02:23:57.030Z,24.90
2023-02-08T02:27:03.796Z,27.45
2023-02-08T02:29:56.791Z,28.23
2023-02-08T02:32:42.446Z,27.55
2023-02-08T02:35:42.436Z,30.58
2023-02-08T02:38:53.420Z,27.55
2023-02-08T02:41:56.914Z,25.15
2023-02-08T02:44:45.304Z,27.25
2023-02-08T02:47:56.016Z,28.67
2023-02-08T02:50:36.270Z,26.75
2023-02-08T02:53:20.536Z,29.77
2023-02-08T02:55:56.370Z,30.40
2023-02-08T02:58:27.365Z,36.53
2023-02-08T03:00:57.424Z,28.52
2023-02-08T03:03:30.437Z,31.45
2023-02-08T03:06:35.383Z,28.52
2023-02-08T03:09:46.183Z,28.53
2023-02-08T03:12:31.333Z,31.52
2023-02-08T03:15:29.964Z,28.10
2023-02-08T03:18:15.809Z,36.78
2023-02-08T03:20:53.778Z,28.63
2023-02-08T03:23:31.656Z,25.13
2023-02-08T03:26:42.042Z,32.03
2023-02-08T03:29:27.658Z,27.15
2023-02-08T03:32:02.933Z,32.47
2023-02-08T03:34:51.420Z,32.78
2023-02-08T03:37:28.870Z,25.80
2023-02-08T03:40:28.191Z,31.15
2023-02-08T03:43:02.732Z,29.85
2023-02-08T03:45:57.611Z,23.52
2023-02-08T03:48:28.253Z,26.67
2023-02-08T03:50:58.244Z,30.67
2023-02-08T03:53:27.892Z,28.75
2023-02-08T03:56:04.498Z,31.75
2023-02-08T03:58:55.751Z,28.63
2023-02-08T04:01:41.193Z,25.90
2023-02-08T04:04:08.994Z,27.60
2023-02-08T04:06:36.074Z,30.77
2023-02-08T04:09:02.966Z,30.50
2023-02-08T04:11:29.854Z,25.75
2023-02-08T04:13:56.788Z,30.65
2023-02-08T04:16:23.772Z,28.52
2023-02-08T04:18:50.717Z,32.15
2023-02-08T04:21:17.812Z,31.90
2023-02-08T04:23:44.723Z,29.33
2023-02-08T04:26:11.732Z,31.80
2023-02-08T04:28:38.600Z,30.50
2023-02-08T04:31:05.772Z,27.13
2023-02-08T04:33:32.747Z,31.15
2023-02-08T04:35:59.671Z,26.92
2023-02-08T04:38:26.697Z,30.98
2023-02-08T04:40:53.552Z,28.20
2023-02-08T04:43:20.535Z,33.17
2023-02-08T04:45:49.961Z,29.13
2023-02-08T04:48:18.077Z,29.50
2023-02-08T04:50:45.179Z,27.48
2023-02-08T04:53:12.514Z,27.67
2023-02-08T04:55:39.413Z,26.40
2023-02-08T04:58:06.547Z,31.10
2023-02-08T05:00:33.760Z,25.00
2023-02-08T05:03:00.901Z,30.65
2023-02-08T05:05:28.498Z,34.03
2023-02-08T05:07:55.363Z,34.35
2023-02-08T05:10:23.192Z,31.55
2023-02-08T05:12:50.299Z,31.90
2023-02-08T05:15:17.642Z,26.33
2023-02-08T05:17:44.864Z,27.00
2023-02-08T05:20:12.811Z,30.77
2023-02-08T05:22:40.533Z,24.20
2023-02-08T05:25:08.089Z,29.48
2023-02-08T05:27:35.969Z,25.40
2023-02-08T05:30:04.106Z,30.17
2023-02-08T05:32:31.813Z,30.65
2023-02-08T05:34:58.713Z,31.10
2023-02-08T05:37:25.752Z,30.45
2023-02-08T05:39:52.657Z,24.48
2023-02-08T05:42:19.885Z,26.27
2023-02-08T05:44:46.752Z,28.35
2023-02-08T05:47:13.966Z,28.02
2023-02-08T05:49:40.925Z,33.13
2023-02-08T05:52:08.083Z,30.80
2023-02-08T05:54:35.227Z,29.38
2023-02-08T05:57:02.266Z,26.88
2023-02-08T05:59:29.259Z,23.98
2023-02-08T06:01:56.127Z,25.08
2023-02-08T06:04:23.076Z,23.63
2023-02-08T06:06:49.931Z,24.23
2023-02-08T06:09:16.825Z,25.00
2023-02-08T06:11:43.915Z,28.33
2023-02-08T06:14:10.744Z,28.40
2023-02-08T06:16:37.741Z,25.88
2023-02-08T06:19:04.708Z,27.88
2023-02-08T06:21:31.834Z,25.15
2023-02-08T06:23:58.878Z,26.25
2023-02-08T06:26:25.817Z,29.23
2023-02-08T06:28:52.868Z,30.30
2023-02-08T06:31:19.754Z,26.02
2023-02-08T06:33:46.636Z,25.83
2023-02-08T06:36:13.556Z,31.52
2023-02-08T06:38:40.456Z,26.08
2023-02-08T06:41:07.432Z,25.90
2023-02-08T06:43:34.475Z,27.42
2023-02-08T06:46:04.782Z,30.42
2023-02-08T06:48:31.901Z,28.00
2023-02-08T06:50:58.884Z,28.80
2023-02-08T06:53:25.927Z,33.85
2023-02-08T06:55:52.791Z,29.10
2023-02-08T06:58:20.491Z,25.98
2023-02-08T07:00:47.821Z,31.13
2023-02-08T07:03:17.402Z,25.55
2023-02-08T07:05:58.786Z,30.23
2023-02-08T07:08:32.577Z,29.20
2023-02-08T07:10:59.484Z,32.20
2023-02-08T07:13:26.412Z,26.63
2023-02-08T07:15:53.295Z,32.65
2023-02-08T07:18:20.172Z,28.27
2023-02-08T07:20:48.917Z,34.88
2023-02-08T07:23:15.776Z,41.80
2023-02-08T07:25:42.887Z,35.20
2023-02-08T07:28:09.814Z,28.23
2023-02-08T07:30:36.881Z,26.88
2023-02-08T07:33:03.824Z,31.30
2023-02-08T07:35:30.690Z,25.45
2023-02-08T07:37:57.558Z,27.17
2023-02-08T07:40:24.486Z,23.00
2023-02-08T07:42:51.316Z,27.55
2023-02-08T07:45:31.962Z,24.08
2023-02-08T07:47:58.862Z,26.85
2023-02-08T07:50:25.819Z,23.35
2023-02-08T07:52:52.696Z,24.05
2023-02-08T07:55:20.493Z,23.45
2023-02-08T07:57:50.071Z,23.15
2023-02-08T08:00:19.189Z,23.17
2023-02-08T08:02:46.152Z,22.48
2023-02-08T08:05:13.070Z,25.85
2023-02-08T08:07:39.861Z,28.92
2023-02-08T08:10:06.996Z,25.20
2023-02-08T08:12:33.842Z,26.15
2023-02-08T08:15:00.950Z,21.17
2023-02-08T08:17:29.835Z,25.85
2023-02-08T08:19:56.859Z,28.45
2023-02-08T08:22:23.812Z,26.02
2023-02-08T08:24:50.722Z,25.35
2023-02-08T08:27:17.753Z,27.60
2023-02-08T08:29:44.705Z,26.27
2023-02-08T08:32:11.942Z,27.45
2023-02-08T08:34:38.963Z,27.13
2023-02-08T08:37:05.805Z,22.83
2023-02-08T08:39:32.728Z,27.42
2023-02-08T08:42:00.831Z,26.30
2023-02-08T08:44:27.783Z,25.65
2023-02-08T08:46:56.796Z,22.90
2023-02-08T08:49:25.607Z,22.05
2023-02-08T08:51:52.744Z,21.75
2023-02-08T08:54:21.076Z,24.02
2023-02-08T08:56:48.164Z,20.75
2023-02-08T08:59:15.140Z,24.35
2023-02-08T09:01:42.744Z,22.92
2023-02-08T09:04:11.160Z,22.30
2023-02-08T09:06:38.766Z,24.85
2023-02-08T09:09:06.410Z,21.55
2023-02-08T09:11:33.554Z,21.90
2023-02-08T09:14:06.299Z,19.48
2023-02-08T09:16:33.825Z,28.05
2023-02-08T09:19:07.534Z,18.70
2023-02-08T09:21:34.747Z,19.23
2023-02-08T09:24:04.012Z,17.35
2023-02-08T09:26:31.143Z,19.38
2023-02-08T09:28:58.077Z,18.70
2023-02-08T09:31:29.407Z,14.90
2023-02-08T09:34:00.110Z,15.15
2023-02-08T09:36:31.833Z,19.38
2023-02-08T09:39:11.224Z,14.75
2023-02-08T09:42:15.113Z,16.83
2023-02-08T09:45:25.169Z,16.02
2023-02-08T09:48:17.402Z,18.55
2023-02-08T09:50:58.480Z,16.33
2023-02-08T09:53:40.459Z,16.25
2023-02-08T09:56:15.555Z,13.30
2023-02-08T10:01:29.203Z,15.60
2023-02-08T10:04:15.112Z,11.93
2023-02-08T10:06:42.106Z,12.90
2023-02-08T10:09:15.610Z,15.05
2023-02-08T10:12:22.663Z,21.33
2023-02-08T10:15:10.246Z,12.88
2023-02-08T10:17:59.351Z,13.00
2023-02-08T10:20:39.412Z,14.77
2023-02-08T10:23:57.104Z,13.75
2023-02-08T10:26:53.852Z,12.57
2023-02-08T10:29:35.192Z,11.60
2023-02-08T10:32:35.335Z,12.45
2023-02-08T10:35:26.575Z,11.73
2023-02-08T10:37:56.700Z,11.98
2023-02-08T10:40:39.302Z,9.98
2023-02-08T10:43:24.378Z,10.02
2023-02-08T10:46:28.699Z,11.00
2023-02-08T10:49:25.131Z,20.52
2023-02-08T10:51:53.743Z,10.73
2023-02-08T10:54:20.902Z,8.25
2023-02-08T10:56:57.527Z,10.68
2023-02-08T10:59:42.968Z,13.77
2023-02-08T11:05:06.337Z,15.02
2023-02-08T11:07:36.465Z,17.40
2023-02-08T11:10:18.486Z,16.63
2023-02-08T11:13:14.014Z,11.75
2023-02-08T11:16:01.864Z,10.43
2023-02-08T11:18:47.122Z,11.30
2023-02-08T11:21:33.259Z,7.80
2023-02-08T11:24:27.115Z,10.52
2023-02-08T11:26:56.580Z,10.93
2023-02-08T11:29:27.458Z,8.98
2023-02-08T11:32:19.744Z,10.40
2023-02-08T11:34:47.399Z,7.20
2023-02-08T11:37:25.822Z,10.25
2023-02-08T11:40:00.766Z,8.52
2023-02-08T11:42:40.917Z,9.23
2023-02-08T11:45:17.619Z,12.10
2023-02-08T11:47:48.715Z,9.18
2023-02-08T11:50:42.011Z,10.10
2023-02-08T11:53:27.884Z,10.73
2023-02-08T11:56:16.774Z,11.23
2023-02-08T11:58:56.113Z,9.13
2023-02-08T12:01:33.658Z,10.73
2023-02-08T12:04:05.236Z,8.77
2023-02-08T12:07:15.774Z,12.63
2023-02-08T12:10:31.170Z,9.30
2023-02-08T12:13:32.293Z,9.20
2023-02-08T12:16:17.231Z,9.18
2023-02-08T12:18:52.766Z,11.20
2023-02-08T12:21:29.516Z,7.85
2023-02-08T12:24:30.436Z,9.73
2023-02-08T12:27:00.485Z,10.02
2023-02-08T12:29:55.065Z,6.38
2023-02-08T12:32:49.956Z,12.68
2023-02-08T12:36:03.136Z,9.30
2023-02-08T12:39:22.757Z,6.30
2023-02-08T12:42:22.690Z,7.90
2023-02-08T12:45:39.104Z,9.43
2023-02-08T12:48:39.540Z,10.77
2023-02-08T12:51:34.802Z,10.68
2023-02-08T12:54:12.702Z,8.60
2023-02-08T12:56:53.645Z,8.52
2023-02-08T12:59:37.650Z,6.90
2023-02-08T13:02:16.935Z,8.02
2023-02-08T13:04:49.520Z,7.43
2023-02-08T13:07:25.569Z,7.68
2023-02-08T13:10:05.369Z,9.40
2023-02-08T13:12:47.201Z,5.90
2023-02-08T13:15:31.328Z,8.35
2023-02-08T13:18:01.333Z,4.38
2023-02-08T13:20:40.714Z,6.65
2023-02-08T13:23:26.437Z,4.32
2023-02-08T13:26:02.452Z,4.57
2023-02-08T13:28:30.088Z,4.78
2023-02-08T13:31:08.909Z,4.57
2023-02-08T13:34:00.968Z,6.20
2023-02-08T13:36:50.195Z,5.20
2023-02-08T13:39:39.130Z,5.07
2023-02-08T13:42:19.939Z,7.80
2023-02-08T13:44:55.150Z,7.97
2023-02-08T13:47:34.001Z,6.20
2023-02-08T13:50:29.077Z,6.82
2023-02-08T13:52:56.272Z,5.47
2023-02-08T13:55:33.214Z,7.10
2023-02-08T13:58:05.169Z,4.20
2023-02-08T14:00:35.314Z,6.20
2023-02-08T14:03:16.051Z,8.52
2023-02-08T14:05:57.934Z,6.40
2023-02-08T14:08:39.839Z,5.30
2023-02-08T14:11:52.186Z,5.38
2023-02-08T14:14:30.112Z,4.57
2023-02-08T14:17:19.425Z,5.95
2023-02-08T14:19:59.288Z,3.92
2023-02-08T14:22:40.600Z,4.25
2023-02-08T14:25:53.105Z,6.35
2023-02-08T14:28:45.720Z,4.10
2023-02-08T14:31:16.577Z,8.32
2023-02-08T14:33:54.897Z,5.20
2023-02-08T14:36:27.544Z,5.97
2023-02-08T14:39:23.470Z,7.53
2023-02-08T14:41:54.562Z,6.05
2023-02-08T14:44:41.488Z,3.97
2023-02-08T14:47:35.729Z,7.18
2023-02-08T14:50:41.405Z,5.28
2023-02-08T14:53:13.691Z,5.82
2023-02-08T14:56:05.286Z,6.28
2023-02-08T14:58:39.374Z,6.03
2023-02-08T15:01:44.465Z,5.30
2023-02-08T15:04:14.240Z,4.90
2023-02-08T15:07:15.884Z,5.60
2023-02-08T15:09:45.039Z,5.90
2023-02-08T15:12:33.901Z,5.63
2023-02-08T15:15:04.166Z,4.47
2023-02-08T15:17:41.747Z,5.20
2023-02-08T15:20:20.704Z,5.15
2023-02-08T15:22:47.522Z,5.90
2023-02-08T15:25:34.041Z,4.20
2023-02-08T15:28:23.289Z,5.20
2023-02-08T15:31:02.456Z,4.60
2023-02-08T15:33:29.666Z,4.78
2023-02-08T15:36:06.502Z,4.80
2023-02-08T15:38:38.432Z,7.82
2023-02-08T15:41:13.103Z,5.90
2023-02-08T15:43:42.188Z,5.18
2023-02-08T15:46:27.501Z,5.90
2023-02-08T15:48:57.190Z,4.57
2023-02-08T15:51:27.375Z,5.57
2023-02-08T15:53:56.864Z,5.28
2023-02-08T15:56:37.886Z,5.03
2023-02-08T15:59:25.366Z,7.15
2023-02-08T16:01:54.233Z,6.55
2023-02-08T16:04:21.721Z,4.93
2023-02-08T16:06:54.944Z,4.97
2023-02-08T16:09:28.337Z,5.93
2023-02-08T16:12:00.304Z,5.85
2023-02-08T16:14:30.261Z,7.75
2023-02-08T16:16:59.108Z,9.20
2023-02-08T16:19:28.368Z,9.60
2023-02-08T16:22:22.839Z,10.00
2023-02-08T16:24:50.810Z,6.95
2023-02-08T16:27:27.296Z,5.50
2023-02-08T16:29:54.918Z,10.45
2023-02-08T16:32:30.679Z,10.07
2023-02-08T16:34:58.426Z,10.65
2023-02-08T16:38:24.066Z,8.50
2023-02-08T16:40:54.408Z,7.25
2023-02-08T16:43:31.733Z,8.40
2023-02-08T16:46:16.593Z,8.57
2023-02-08T16:48:45.820Z,9.20
2023-02-08T16:51:21.829Z,12.32
2023-02-08T16:53:56.927Z,18.30
2023-02-08T16:58:50.736Z,12.05
2023-02-08T17:02:05.611Z,11.13
2023-02-08T17:04:32.555Z,16.17
2023-02-08T17:06:59.622Z,11.50
2023-02-08T17:09:26.418Z,9.48
2023-02-08T17:11:53.238Z,14.13
2023-02-08T17:14:20.321Z,15.88
2023-02-08T17:16:47.221Z,8.43
2023-02-08T17:19:17.905Z,11.73
2023-02-08T17:21:45.089Z,8.48
2023-02-08T17:24:12.054Z,9.52
2023-02-08T17:26:44.378Z,20.23
2023-02-08T17:29:12.537Z,16.15
2023-02-08T17:31:40.922Z,12.98
2023-02-08T17:34:07.934Z,16.73
2023-02-08T17:36:37.091Z,13.63
2023-02-08T17:39:05.695Z,19.10
2023-02-08T17:41:32.578Z,14.07
2023-02-08T17:43:59.558Z,20.30
2023-02-08T17:46:30.600Z,22.45
2023-02-08T17:49:03.545Z,21.08
2023-02-08T17:51:30.969Z,16.80
2023-02-08T17:53:58.000Z,20.83
2023-02-08T17:56:28.473Z,18.65
2023-02-08T17:58:56.173Z,17.55
2023-02-08T18:01:26.415Z,29.67
2023-02-08T18:03:54.081Z,32.40
2023-02-08T18:06:23.741Z,24.35
2023-02-08T18:08:52.385Z,28.80
2023-02-08T18:11:21.293Z,33.67
2023-02-08T18:13:50.754Z,35.50
2023-02-08T18:16:25.577Z,39.67
2023-02-08T18:18:57.115Z,38.47
2023-02-08T18:21:25.865Z,21.13
2023-02-08T18:23:55.277Z,20.40
2023-02-08T18:26:24.807Z,20.17
2023-02-08T18:28:52.310Z,17.42
2023-02-08T18:31:21.086Z,15.52
2023-02-08T18:33:50.073Z,19.25
2023-02-08T18:36:18.844Z,18.77
2023-02-08T18:38:48.853Z,16.92
2023-02-08T18:41:21.257Z,20.05
2023-02-08T18:43:49.075Z,22.98
2023-02-08T18:46:20.990Z,21.23
2023-02-08T18:48:49.194Z,23.08
2023-02-08T18:51:19.657Z,24.00
2023-02-08T18:53:53.862Z,21.70
2023-02-08T18:56:24.229Z,21.27
2023-02-08T18:58:57.738Z,27.52
2023-02-08T19:01:25.156Z,23.52
2023-02-08T19:03:53.177Z,19.80
2023-02-08T19:06:24.430Z,18.85
2023-02-08T19:08:54.927Z,19.00
2023-02-08T19:11:28.925Z,16.40
2023-02-08T19:14:00.915Z,16.97
2023-02-08T19:16:33.032Z,16.42
2023-02-08T19:19:01.219Z,17.13
2023-02-08T19:21:29.935Z,14.13
2023-02-08T19:24:00.673Z,18.80
2023-02-08T19:26:36.812Z,21.27
2023-02-08T19:29:07.518Z,16.50
2023-02-08T19:31:34.830Z,22.80
2023-02-08T19:34:03.901Z,20.27
2023-02-08T19:36:38.281Z,17.17
2023-02-08T19:39:06.646Z,18.10
2023-02-08T19:41:39.099Z,15.30
2023-02-08T19:44:11.243Z,13.45
2023-02-08T19:46:43.965Z,20.50
2023-02-08T19:49:12.980Z,12.80
2023-02-08T19:51:41.051Z,15.68
2023-02-08T19:54:13.202Z,12.57
2023-02-08T19:56:41.551Z,14.70
2023-02-08T19:59:18.250Z,13.38
2023-02-08T20:01:46.408Z,20.52
2023-02-08T20:04:14.126Z,16.33
2023-02-08T20:06:42.722Z,15.75
2023-02-08T20:09:09.598Z,18.35
2023-02-08T20:11:51.213Z,15.57
2023-02-08T20:14:23.346Z,17.30
2023-02-08T20:16:50.363Z,15.68
2023-02-08T20:19:17.537Z,15.65
2023-02-08T20:21:45.417Z,17.30
2023-02-08T20:24:13.840Z,17.45
2023-02-08T20:26:44.714Z,12.55
2023-02-08T20:29:12.784Z,11.23
2023-02-08T20:31:44.561Z,10.55
2023-02-08T20:34:15.343Z,9.25
2023-02-08T20:37:05.290Z,11.20
2023-02-08T20:39:33.552Z,12.45
2023-02-08T20:42:00.697Z,13.35
2023-02-08T20:44:28.408Z,9.80
2023-02-08T20:47:00.272Z,9.30
2023-02-08T20:49:32.647Z,9.13
2023-02-08T20:52:02.304Z,11.35
2023-02-08T20:54:32.259Z,10.38
2023-02-08T20:57:02.589Z,9.57
2023-02-08T20:59:34.257Z,9.25
2023-02-08T21:02:07.826Z,8.13
2023-02-08T21:04:42.191Z,8.50
2023-02-08T21:07:19.519Z,8.80
2023-02-08T21:09:48.915Z,8.75
2023-02-08T21:12:22.890Z,10.18
2023-02-08T21:14:54.332Z,11.30
2023-02-08T21:17:24.552Z,7.95
2023-02-08T21:19:56.721Z,8.82
2023-02-08T21:22:26.799Z,12.15
2023-02-08T21:24:58.114Z,9.95
2023-02-08T21:27:28.259Z,14.35
2023-02-08T21:29:58.372Z,14.93
2023-02-08T21:32:26.518Z,16.73
2023-02-08T21:35:01.268Z,13.48
2023-02-08T21:37:41.615Z,15.68
2023-02-08T21:40:24.231Z,16.83
2023-02-08T21:43:07.338Z,25.70
2023-02-08T21:45:55.518Z,22.20
2023-02-08T21:48:53.316Z,16.80
2023-02-08T21:51:41.971Z,36.92
2023-02-08T21:54:39.457Z,22.38
2023-02-08T21:58:04.779Z,23.65
2023-02-08T22:00:43.747Z,24.35
2023-02-08T22:06:38.888Z,31.15
2023-02-08T22:09:32.212Z,16.33
2023-02-08T22:12:49.483Z,17.95
2023-02-08T22:15:52.228Z,14.70
2023-02-08T22:18:55.134Z,12.85
2023-02-08T22:22:04.188Z,9.85
2023-02-08T22:25:07.388Z,11.00
2023-02-08T22:28:14.498Z,13.45
2023-02-08T22:31:17.271Z,11.88
2023-02-08T22:34:11.456Z,11.05
2023-02-08T22:40:29.312Z,10.48
2023-02-08T22:42:57.194Z,11.43
2023-02-08T22:45:57.567Z,12.85
2023-02-08T22:48:31.978Z,10.82
2023-02-08T22:51:12.535Z,9.60
2023-02-08T22:53:40.635Z,12.32
2023-02-08T22:56:17.015Z,9.13
2023-02-08T22:58:52.239Z,11.40
2023-02-08T23:01:31.093Z,9.63
2023-02-08T23:04:00.928Z,12.65
2023-02-08T23:06:44.241Z,9.80
2023-02-08T23:09:12.835Z,10.32
2023-02-08T23:11:43.170Z,10.05
2023-02-08T23:14:10.665Z,9.93
2023-02-08T23:16:38.372Z,9.55
2023-02-08T23:19:05.936Z,12.85
2023-02-08T23:21:33.339Z,10.27
2023-02-08T23:24:00.264Z,10.68
2023-02-08T23:26:27.195Z,10.15
2023-02-08T23:28:54.366Z,12.13
2023-02-08T23:31:22.754Z,8.65
2023-02-08T23:33:50.058Z,11.43
2023-02-08T23:36:22.770Z,12.55
2023-02-08T23:38:50.937Z,8.35
2023-02-08T23:41:22.052Z,11.27
2023-02-08T23:43:53.163Z,9.15
2023-02-08T23:46:25.243Z,10.55
2023-02-08T23:48:53.306Z,9.48
2023-02-08T23:51:23.376Z,8.32
2023-02-08T23:53:51.883Z,10.20
2023-02-08T23:56:26.106Z,11.30
2023-02-08T23:58:57.171Z,12.15
